METAR Data
IDs: Format: Raw Decoded Include TAF

Data at: 0129 UTC 20 Jan 2022

LSZG 200120Z AUTO 22007KT 9999 OVC034 02/M01 Q1027